createdAt,value
2019-04-16T00:00:35.828Z,22.67
2019-04-16T00:03:04.948Z,22.93
2019-04-16T00:05:46.342Z,24.83
2019-04-16T00:08:28.106Z,22.47
2019-04-16T00:11:05.089Z,22.87
2019-04-16T00:13:43.232Z,21.37
2019-04-16T00:16:13.018Z,22.90
2019-04-16T00:18:56.381Z,22.83
2019-04-16T00:21:32.318Z,24.77
2019-04-16T00:24:20.450Z,24.43
2019-04-16T00:26:58.050Z,25.27
2019-04-16T00:29:25.047Z,23.40
2019-04-16T00:32:07.841Z,22.47
2019-04-16T00:34:35.310Z,25.17
2019-04-16T00:37:04.230Z,23.60
2019-04-16T00:39:33.017Z,24.00
2019-04-16T00:42:01.901Z,24.83
2019-04-16T00:44:30.972Z,22.73
2019-04-16T00:46:59.798Z,25.27
2019-04-16T00:49:28.626Z,24.60
2019-04-16T00:51:57.510Z,25.97
2019-04-16T00:54:26.481Z,27.27
2019-04-16T00:56:55.698Z,26.10
2019-04-16T00:59:24.929Z,25.73
2019-04-16T01:01:54.202Z,24.60
2019-04-16T01:04:23.424Z,25.10
2019-04-16T01:06:52.485Z,27.40
2019-04-16T01:09:21.275Z,25.23
2019-04-16T01:11:50.476Z,24.30
2019-04-16T01:14:19.380Z,25.97
2019-04-16T01:16:48.532Z,25.57
2019-04-16T01:19:17.458Z,22.53
2019-04-16T01:21:46.256Z,22.13
2019-04-16T01:24:17.579Z,24.17
2019-04-16T01:26:45.725Z,25.53
2019-04-16T01:29:16.468Z,24.23
2019-04-16T01:32:00.478Z,22.13
2019-04-16T01:34:57.275Z,21.50
2019-04-16T01:37:56.509Z,24.37
2019-04-16T01:40:27.480Z,22.03
2019-04-16T01:42:56.674Z,24.80
2019-04-16T01:45:29.582Z,23.00
2019-04-16T01:47:56.146Z,24.07
2019-04-16T01:50:25.025Z,23.47
2019-04-16T01:52:54.075Z,26.20
2019-04-16T01:55:25.501Z,24.30
2019-04-16T01:57:53.984Z,24.40
2019-04-16T02:00:22.767Z,23.40
2019-04-16T02:02:51.805Z,24.57
2019-04-16T02:05:23.209Z,25.50
2019-04-16T02:07:51.597Z,24.63
2019-04-16T02:10:20.522Z,25.70
2019-04-16T02:12:49.432Z,24.17
2019-04-16T02:15:37.535Z,24.33
2019-04-16T02:18:06.900Z,23.90
2019-04-16T02:20:38.592Z,25.73
2019-04-16T02:23:06.692Z,24.47
2019-04-16T02:25:35.473Z,25.93
2019-04-16T02:28:04.328Z,24.30
2019-04-16T02:30:37.599Z,23.70
2019-04-16T02:33:04.656Z,24.53
2019-04-16T02:35:33.842Z,25.03
2019-04-16T02:38:02.771Z,27.87
2019-04-16T02:40:31.775Z,25.90
2019-04-16T02:43:06.569Z,26.87
2019-04-16T02:45:31.106Z,27.63
2019-04-16T02:48:00.285Z,26.30
2019-04-16T02:50:42.982Z,25.97
2019-04-16T02:53:29.796Z,24.93
2019-04-16T02:56:19.160Z,24.50
2019-04-16T02:58:52.593Z,23.80
2019-04-16T03:01:41.573Z,25.13
2019-04-16T03:04:14.221Z,27.03
2019-04-16T03:06:43.191Z,27.27
2019-04-16T03:09:12.221Z,26.00
2019-04-16T03:11:41.136Z,25.90
2019-04-16T03:14:09.996Z,27.47
2019-04-16T03:17:00.947Z,25.27
2019-04-16T03:19:33.526Z,26.57
2019-04-16T03:22:03.311Z,26.20
2019-04-16T03:24:32.889Z,26.07
2019-04-16T03:27:04.493Z,23.30
2019-04-16T03:29:32.599Z,25.63
2019-04-16T03:32:01.367Z,25.33
2019-04-16T03:34:30.462Z,27.50
2019-04-16T03:37:01.962Z,27.03
2019-04-16T03:39:30.160Z,26.40
2019-04-16T03:41:58.965Z,25.53
2019-04-16T03:44:27.733Z,25.67
2019-04-16T03:46:56.777Z,26.47
2019-04-16T03:49:27.821Z,27.27
2019-04-16T03:51:56.149Z,27.33
2019-04-16T03:54:24.956Z,27.73
2019-04-16T03:56:53.742Z,25.73
2019-04-16T03:59:22.565Z,26.03
2019-04-16T04:01:51.352Z,26.13
2019-04-16T04:04:20.205Z,27.13
2019-04-16T04:06:48.984Z,26.57
2019-04-16T04:09:18.978Z,25.57
2019-04-16T04:11:48.305Z,26.27
2019-04-16T04:14:22.116Z,26.63
2019-04-16T04:16:47.732Z,28.33
2019-04-16T04:19:16.785Z,28.90
2019-04-16T04:21:45.627Z,27.60
2019-04-16T04:24:14.666Z,27.47
2019-04-16T04:26:45.440Z,28.97
2019-04-16T04:29:14.316Z,26.43
2019-04-16T04:31:43.105Z,28.33
2019-04-16T04:34:15.382Z,27.40
2019-04-16T04:36:45.643Z,26.63
2019-04-16T04:39:15.667Z,26.40
2019-04-16T04:41:44.685Z,25.77
2019-04-16T04:44:16.245Z,28.60
2019-04-16T04:46:46.151Z,27.97
2019-04-16T04:49:15.831Z,27.13
2019-04-16T04:51:44.686Z,28.37
2019-04-16T04:54:13.523Z,28.77
2019-04-16T04:56:43.427Z,26.83
2019-04-16T04:59:12.236Z,30.20
2019-04-16T05:01:41.951Z,26.37
2019-04-16T05:04:30.741Z,28.30
2019-04-16T05:07:04.920Z,28.50
2019-04-16T05:09:36.475Z,28.67
2019-04-16T05:12:07.731Z,30.07
2019-04-16T05:14:37.114Z,30.03
2019-04-16T05:17:06.544Z,28.40
2019-04-16T05:19:36.284Z,29.87
2019-04-16T05:22:05.422Z,29.20
2019-04-16T05:24:37.408Z,29.67
2019-04-16T05:27:05.477Z,30.10
2019-04-16T05:29:35.235Z,32.30
2019-04-16T05:32:04.085Z,31.83
2019-04-16T05:34:34.634Z,31.60
2019-04-16T05:37:03.525Z,31.23
2019-04-16T05:39:32.767Z,35.10
2019-04-16T05:42:02.109Z,33.13
2019-04-16T05:44:34.006Z,32.50
2019-04-16T05:47:01.408Z,34.63
2019-04-16T05:49:30.208Z,31.77
2019-04-16T05:52:02.950Z,30.57
2019-04-16T05:54:48.349Z,30.43
2019-04-16T05:57:25.705Z,28.27
2019-04-16T05:59:53.828Z,28.77
2019-04-16T06:02:28.541Z,28.73
2019-04-16T06:04:57.702Z,28.23
2019-04-16T06:07:26.810Z,29.17
2019-04-16T06:09:55.871Z,27.40
2019-04-16T06:12:26.758Z,28.20
2019-04-16T06:15:21.314Z,27.23
2019-04-16T06:18:07.279Z,28.07
2019-04-16T06:20:53.901Z,27.10
2019-04-16T06:23:48.511Z,27.03
2019-04-16T06:26:23.934Z,25.73
2019-04-16T06:29:00.149Z,26.33
2019-04-16T06:31:42.788Z,26.10
2019-04-16T06:34:45.876Z,25.13
2019-04-16T06:37:21.781Z,25.37
2019-04-16T06:40:10.834Z,26.03
2019-04-16T06:42:56.424Z,26.70
2019-04-16T06:45:42.845Z,27.37
2019-04-16T06:48:19.749Z,27.10
2019-04-16T06:50:59.279Z,24.83
2019-04-16T06:53:36.804Z,25.87
2019-04-16T06:56:24.824Z,25.40
2019-04-16T06:59:19.072Z,27.37
2019-04-16T07:02:07.656Z,25.67
2019-04-16T07:04:42.037Z,26.50
2019-04-16T07:07:22.243Z,25.60
2019-04-16T07:09:57.739Z,26.13
2019-04-16T07:12:29.261Z,27.47
2019-04-16T07:14:58.177Z,26.60
2019-04-16T07:17:32.904Z,24.90
2019-04-16T07:19:58.176Z,27.30
2019-04-16T07:22:27.413Z,26.17
2019-04-16T07:24:57.046Z,25.53
2019-04-16T07:27:34.068Z,24.77
2019-04-16T07:30:09.065Z,24.93
2019-04-16T07:33:00.585Z,27.17
2019-04-16T07:35:45.889Z,25.23
2019-04-16T07:38:28.131Z,24.10
2019-04-16T07:41:17.024Z,24.63
2019-04-16T07:44:04.698Z,26.23
2019-04-16T07:46:54.708Z,25.97
2019-04-16T07:49:37.689Z,25.70
2019-04-16T07:52:28.794Z,24.87
2019-04-16T07:55:31.769Z,24.17
2019-04-16T07:58:00.649Z,24.80
2019-04-16T08:00:29.548Z,24.80
2019-04-16T08:02:58.737Z,25.67
2019-04-16T08:05:28.268Z,25.17
2019-04-16T08:07:57.189Z,25.37
2019-04-16T08:10:26.083Z,25.97
2019-04-16T08:13:00.477Z,25.50
2019-04-16T08:15:30.006Z,25.77
2019-04-16T08:17:59.125Z,25.00
2019-04-16T08:20:28.494Z,25.53
2019-04-16T08:23:00.962Z,23.00
2019-04-16T08:25:33.905Z,25.05
2019-04-16T08:28:01.590Z,24.87
2019-04-16T08:30:34.595Z,24.82
2019-04-16T08:33:01.223Z,26.60
2019-04-16T08:35:30.263Z,24.90
2019-04-16T08:37:59.267Z,25.30
2019-04-16T08:40:28.797Z,25.05
2019-04-16T08:42:58.374Z,26.57
2019-04-16T08:45:28.238Z,26.77
2019-04-16T08:47:57.221Z,25.75
2019-04-16T08:50:27.005Z,26.85
2019-04-16T08:52:56.233Z,27.07
2019-04-16T08:55:25.020Z,25.97
2019-04-16T08:57:53.932Z,24.98
2019-04-16T09:00:22.952Z,26.57
2019-04-16T09:02:51.752Z,25.12
2019-04-16T09:05:20.868Z,25.37
2019-04-16T09:07:51.046Z,24.82
2019-04-16T09:10:23.764Z,24.63
2019-04-16T09:13:03.503Z,23.00
2019-04-16T09:15:27.347Z,22.75
2019-04-16T09:18:14.117Z,23.10
2019-04-16T09:20:43.968Z,22.70
2019-04-16T09:23:13.051Z,24.02
2019-04-16T09:26:15.190Z,22.13
2019-04-16T09:28:49.429Z,22.15
2019-04-16T09:31:54.996Z,23.73
2019-04-16T09:34:45.165Z,21.73
2019-04-16T09:37:29.594Z,24.40
2019-04-16T09:40:26.328Z,22.93
2019-04-16T09:42:55.422Z,23.95
2019-04-16T09:45:25.421Z,23.35
2019-04-16T09:47:54.589Z,23.10
2019-04-16T09:50:23.788Z,23.98
2019-04-16T09:52:55.352Z,21.90
2019-04-16T09:55:24.341Z,22.40
2019-04-16T09:57:55.235Z,22.55
2019-04-16T10:00:30.535Z,21.75
2019-04-16T10:03:06.421Z,20.75
2019-04-16T10:05:35.245Z,21.57
2019-04-16T10:08:04.080Z,22.17
2019-04-16T10:10:32.900Z,23.35
2019-04-16T10:13:01.785Z,21.05
2019-04-16T10:15:31.297Z,21.82
2019-04-16T10:18:01.591Z,20.72
2019-04-16T10:20:30.916Z,21.02
2019-04-16T10:23:01.650Z,21.20
2019-04-16T10:25:33.728Z,21.93
2019-04-16T10:28:07.688Z,20.10
2019-04-16T10:30:44.418Z,20.62
2019-04-16T10:33:13.401Z,19.40
2019-04-16T10:35:42.605Z,19.35
2019-04-16T10:38:30.731Z,21.62
2019-04-16T10:41:05.743Z,20.77
2019-04-16T10:43:52.681Z,18.02
2019-04-16T10:46:34.422Z,16.48
2019-04-16T10:49:22.580Z,18.30
2019-04-16T10:52:22.912Z,18.52
2019-04-16T10:55:00.152Z,17.25
2019-04-16T10:57:48.126Z,16.48
2019-04-16T11:00:42.490Z,16.60
2019-04-16T11:03:22.733Z,15.68
2019-04-16T11:06:05.836Z,16.10
2019-04-16T11:08:34.938Z,14.15
2019-04-16T11:11:04.245Z,12.82
2019-04-16T11:13:40.285Z,11.30
2019-04-16T11:16:13.715Z,10.43
2019-04-16T11:18:42.808Z,11.28
2019-04-16T11:21:12.519Z,8.93
2019-04-16T11:23:41.463Z,9.75
2019-04-16T11:26:10.418Z,7.80
2019-04-16T11:28:39.314Z,11.18
2019-04-16T11:31:11.952Z,9.70
2019-04-16T11:33:40.905Z,8.45
2019-04-16T11:36:18.846Z,8.75
2019-04-16T11:38:40.188Z,7.67
2019-04-16T11:41:09.394Z,7.25
2019-04-16T11:43:38.555Z,8.00
2019-04-16T11:46:07.602Z,9.18
2019-04-16T11:48:37.626Z,9.95
2019-04-16T11:51:07.220Z,11.18
2019-04-16T11:53:36.105Z,10.40
2019-04-16T11:56:04.996Z,11.97
2019-04-16T11:58:40.536Z,9.93
2019-04-16T12:01:18.712Z,9.18
2019-04-16T12:04:10.942Z,9.85
2019-04-16T12:06:54.039Z,10.65
2019-04-16T12:09:36.502Z,10.45
2019-04-16T12:12:11.133Z,12.18
2019-04-16T12:15:08.217Z,10.00
2019-04-16T12:17:56.213Z,11.08
2019-04-16T12:20:42.980Z,12.13
2019-04-16T12:23:31.064Z,10.58
2019-04-16T12:26:31.200Z,10.48
2019-04-16T12:29:26.735Z,11.10
2019-04-16T12:32:03.585Z,11.05
2019-04-16T12:34:36.616Z,12.18
2019-04-16T12:37:18.593Z,12.28
2019-04-16T12:40:05.691Z,12.37
2019-04-16T12:42:59.857Z,11.85
2019-04-16T12:45:35.688Z,11.73
2019-04-16T12:48:32.343Z,11.30
2019-04-16T12:51:12.180Z,12.30
2019-04-16T12:53:53.431Z,12.43
2019-04-16T12:56:41.158Z,13.72
2019-04-16T12:59:16.427Z,13.45
2019-04-16T13:01:53.263Z,13.00
2019-04-16T13:04:50.661Z,13.85
2019-04-16T13:07:25.576Z,15.08
2019-04-16T13:10:26.046Z,15.80
2019-04-16T13:13:21.341Z,15.93
2019-04-16T13:15:58.602Z,17.07
2019-04-16T13:19:01.622Z,18.23
2019-04-16T13:21:33.682Z,18.57
2019-04-16T13:24:09.125Z,19.00
2019-04-16T13:26:52.034Z,18.77
2019-04-16T13:29:29.199Z,19.95
2019-04-16T13:31:53.960Z,18.40
2019-04-16T13:34:23.612Z,19.05
2019-04-16T13:36:52.489Z,18.32
2019-04-16T13:39:26.660Z,17.25
2019-04-16T13:41:55.989Z,20.02
2019-04-16T13:44:27.378Z,19.95
2019-04-16T13:47:01.411Z,20.27
2019-04-16T13:49:40.665Z,19.90
2019-04-16T13:52:09.804Z,19.98
2019-04-16T13:54:51.351Z,20.05
2019-04-16T13:57:22.019Z,20.15
2019-04-16T13:59:54.950Z,20.23
2019-04-16T14:02:42.917Z,20.25
2019-04-16T14:05:12.329Z,18.45
2019-04-16T14:07:41.625Z,12.85
2019-04-16T14:10:11.609Z,9.88
2019-04-16T14:12:42.563Z,10.45
2019-04-16T14:15:12.166Z,8.40
2019-04-16T14:17:52.511Z,10.60
2019-04-16T14:20:13.626Z,10.38
2019-04-16T14:22:42.869Z,9.38
2019-04-16T14:25:12.136Z,11.88
2019-04-16T14:27:41.140Z,12.60
2019-04-16T14:30:18.544Z,13.62
2019-04-16T14:32:47.409Z,14.10
2019-04-16T14:35:32.905Z,13.60
2019-04-16T14:37:55.386Z,13.80
2019-04-16T14:40:25.875Z,15.80
2019-04-16T14:42:57.585Z,14.57
2019-04-16T14:45:53.578Z,16.77
2019-04-16T14:48:08.994Z,15.50
2019-04-16T14:50:37.857Z,17.60
2019-04-16T14:53:06.865Z,16.53
2019-04-16T14:55:58.751Z,16.73
2019-04-16T14:58:31.076Z,16.10
2019-04-16T15:01:07.910Z,16.80
2019-04-16T15:03:54.373Z,15.90
2019-04-16T15:06:41.381Z,16.17
2019-04-16T15:09:32.583Z,16.07
2019-04-16T15:12:22.851Z,13.97
2019-04-16T15:15:11.731Z,14.40
2019-04-16T15:17:46.751Z,15.90
2019-04-16T15:20:36.117Z,15.40
2019-04-16T15:23:18.523Z,16.37
2019-04-16T15:26:00.737Z,16.50
2019-04-16T15:28:36.117Z,16.23
2019-04-16T15:31:16.823Z,15.33
2019-04-16T15:33:49.320Z,17.53
2019-04-16T15:36:23.605Z,17.40
2019-04-16T15:39:17.593Z,15.47
2019-04-16T15:42:17.982Z,16.73
2019-04-16T15:44:57.652Z,16.00
2019-04-16T15:47:55.196Z,15.87
2019-04-16T15:50:36.786Z,15.47
2019-04-16T15:53:40.023Z,16.20
2019-04-16T15:56:18.604Z,16.00
2019-04-16T15:58:56.825Z,16.57
2019-04-16T16:01:35.418Z,17.33
2019-04-16T16:04:35.603Z,18.20
2019-04-16T16:07:08.773Z,18.47
2019-04-16T16:09:58.940Z,16.73
2019-04-16T16:12:28.629Z,16.47
2019-04-16T16:14:57.433Z,16.10
2019-04-16T16:17:26.336Z,16.30
2019-04-16T16:19:55.393Z,15.73
2019-04-16T16:22:24.304Z,13.37
2019-04-16T16:24:53.120Z,15.17
2019-04-16T16:27:22.331Z,15.83
2019-04-16T16:29:51.116Z,14.13
2019-04-16T16:32:20.183Z,14.53
2019-04-16T16:34:49.038Z,14.47
2019-04-16T16:37:18.193Z,13.97
2019-04-16T16:39:48.032Z,10.97
2019-04-16T16:42:16.866Z,12.37
2019-04-16T16:44:45.690Z,13.33
2019-04-16T16:47:27.872Z,13.17
2019-04-16T16:49:57.425Z,12.63
2019-04-16T16:52:36.988Z,13.23
2019-04-16T16:55:09.324Z,13.67
2019-04-16T16:57:43.416Z,13.07
2019-04-16T17:00:30.472Z,14.73
2019-04-16T17:03:10.043Z,14.37
2019-04-16T17:05:38.656Z,13.07
2019-04-16T17:08:07.929Z,12.80
2019-04-16T17:10:36.853Z,11.83
2019-04-16T17:13:05.737Z,12.30
2019-04-16T17:15:34.866Z,13.13
2019-04-16T17:18:03.781Z,13.67
2019-04-16T17:20:32.738Z,14.23
2019-04-16T17:23:02.032Z,12.97
2019-04-16T17:25:36.713Z,12.33
2019-04-16T17:28:04.060Z,11.27
2019-04-16T17:30:33.206Z,12.27
2019-04-16T17:33:02.171Z,11.37
2019-04-16T17:35:31.390Z,12.93
2019-04-16T17:38:02.727Z,11.57
2019-04-16T17:40:43.924Z,12.67
2019-04-16T17:43:17.953Z,13.10
2019-04-16T17:45:55.742Z,14.33
2019-04-16T17:48:53.200Z,13.47
2019-04-16T17:51:40.649Z,12.50
2019-04-16T17:54:14.518Z,13.67
2019-04-16T17:57:01.456Z,11.37
2019-04-16T17:59:53.558Z,11.00
2019-04-16T18:02:56.946Z,10.73
2019-04-16T18:05:33.356Z,9.47
2019-04-16T18:08:20.020Z,8.33
2019-04-16T18:10:56.324Z,10.17
2019-04-16T18:13:36.589Z,9.13
2019-04-16T18:16:36.989Z,9.23
2019-04-16T18:19:14.077Z,9.00
2019-04-16T18:22:06.107Z,8.53
2019-04-16T18:24:59.941Z,8.37
2019-04-16T18:27:39.389Z,9.00
2019-04-16T18:30:33.669Z,9.53
2019-04-16T18:33:14.901Z,9.23
2019-04-16T18:35:50.205Z,9.33
2019-04-16T18:38:42.526Z,10.77
2019-04-16T18:41:17.206Z,8.57
2019-04-16T18:44:11.293Z,12.60
2019-04-16T18:46:47.853Z,14.83
2019-04-16T18:49:18.765Z,14.20
2019-04-16T18:51:47.844Z,13.63
2019-04-16T18:54:17.721Z,14.90
2019-04-16T18:56:46.630Z,15.87
2019-04-16T18:59:15.683Z,17.03
2019-04-16T19:01:46.756Z,13.70
2019-04-16T19:04:15.641Z,14.00
2019-04-16T19:06:47.633Z,14.03
2019-04-16T19:09:20.573Z,12.23
2019-04-16T19:11:47.709Z,13.50
2019-04-16T19:14:16.512Z,13.13
2019-04-16T19:16:48.188Z,17.17
2019-04-16T19:19:17.039Z,18.83
2019-04-16T19:21:51.251Z,16.87
2019-04-16T19:24:17.151Z,16.50
2019-04-16T19:26:46.136Z,16.53
2019-04-16T19:29:15.296Z,16.50
2019-04-16T19:31:44.313Z,16.70
2019-04-16T19:34:13.172Z,18.27
2019-04-16T19:36:42.986Z,18.23
2019-04-16T19:39:15.215Z,17.60
2019-04-16T19:41:43.400Z,17.37
2019-04-16T19:44:12.358Z,17.83
2019-04-16T19:46:45.422Z,14.77
2019-04-16T19:49:13.021Z,13.67
2019-04-16T19:51:42.064Z,13.30
2019-04-16T19:54:11.011Z,16.37
2019-04-16T19:56:39.893Z,18.50
2019-04-16T19:59:08.898Z,17.90
2019-04-16T20:01:37.729Z,15.10
2019-04-16T20:04:10.766Z,17.20
2019-04-16T20:06:37.285Z,17.60
2019-04-16T20:09:07.397Z,17.73
2019-04-16T20:11:36.294Z,15.40
2019-04-16T20:14:05.187Z,15.53
2019-04-16T20:16:34.167Z,14.37
2019-04-16T20:19:03.514Z,14.73
2019-04-16T20:21:32.381Z,16.50
2019-04-16T20:24:01.309Z,16.53
2019-04-16T20:26:32.448Z,17.13
2019-04-16T20:29:00.807Z,17.00
2019-04-16T20:31:29.706Z,16.83
2019-04-16T20:33:58.862Z,16.90
2019-04-16T20:36:27.670Z,17.07
2019-04-16T20:38:57.069Z,15.40
2019-04-16T20:41:26.233Z,16.13
2019-04-16T20:43:55.378Z,13.73
2019-04-16T20:46:24.155Z,14.80
2019-04-16T20:49:06.534Z,15.63
2019-04-16T20:51:26.279Z,13.63
2019-04-16T20:53:54.020Z,13.23
2019-04-16T20:56:23.285Z,13.67
2019-04-16T20:58:52.382Z,14.77
2019-04-16T21:01:34.015Z,13.40
2019-04-16T21:04:04.863Z,12.57
2019-04-16T21:06:28.601Z,13.60
2019-04-16T21:08:58.288Z,13.57
2019-04-16T21:11:27.373Z,14.27
2019-04-16T21:13:57.129Z,14.50
2019-04-16T21:16:26.144Z,14.37
2019-04-16T21:18:55.472Z,14.87
2019-04-16T21:21:24.928Z,14.70
2019-04-16T21:23:53.733Z,12.87
2019-04-16T21:26:22.610Z,14.00
2019-04-16T21:29:16.713Z,15.30
2019-04-16T21:31:49.487Z,14.20
2019-04-16T21:34:25.059Z,14.33
2019-04-16T21:37:10.554Z,13.80
2019-04-16T21:39:51.147Z,14.73
2019-04-16T21:42:19.110Z,14.93
2019-04-16T21:44:47.928Z,14.87
2019-04-16T21:47:16.693Z,15.87
2019-04-16T21:49:45.993Z,14.83
2019-04-16T21:52:14.943Z,15.10
2019-04-16T21:54:43.817Z,16.63
2019-04-16T21:57:13.366Z,15.53
2019-04-16T21:59:43.232Z,14.80
2019-04-16T22:02:38.933Z,14.63
2019-04-16T22:05:10.082Z,14.80
2019-04-16T22:07:39.078Z,15.10
2019-04-16T22:10:08.350Z,15.03
2019-04-16T22:12:37.089Z,14.47
2019-04-16T22:15:06.280Z,15.03
2019-04-16T22:17:36.528Z,15.60
2019-04-16T22:20:06.959Z,17.13
2019-04-16T22:22:36.007Z,15.37
2019-04-16T22:25:05.221Z,15.13
2019-04-16T22:27:36.706Z,14.57
2019-04-16T22:30:05.445Z,16.00
2019-04-16T22:32:34.412Z,16.03
2019-04-16T22:35:03.392Z,14.20
2019-04-16T22:37:32.197Z,15.50
2019-04-16T22:40:22.537Z,14.20
2019-04-16T22:43:08.563Z,13.23
2019-04-16T22:45:41.810Z,12.57
2019-04-16T22:48:10.885Z,12.93
2019-04-16T22:50:40.022Z,13.13
2019-04-16T22:53:09.077Z,12.33
2019-04-16T22:55:42.367Z,12.17
2019-04-16T22:58:23.337Z,13.13
2019-04-16T23:00:53.181Z,13.50
2019-04-16T23:03:22.076Z,12.63
2019-04-16T23:05:50.853Z,14.27
2019-04-16T23:08:19.712Z,16.27
2019-04-16T23:10:50.638Z,16.90
2019-04-16T23:13:18.961Z,18.10
2019-04-16T23:15:48.152Z,16.50
2019-04-16T23:18:18.189Z,15.97
2019-04-16T23:20:47.557Z,16.77
2019-04-16T23:23:19.104Z,17.73
2019-04-16T23:25:46.857Z,17.00
2019-04-16T23:28:15.942Z,17.03
2019-04-16T23:30:44.833Z,16.33
2019-04-16T23:33:15.595Z,16.73
2019-04-16T23:35:44.722Z,16.10
2019-04-16T23:38:13.504Z,15.63
2019-04-16T23:40:43.848Z,16.40
2019-04-16T23:43:21.918Z,17.27
2019-04-16T23:46:06.525Z,16.80
2019-04-16T23:49:04.021Z,15.20
2019-04-16T23:51:37.376Z,18.43
2019-04-16T23:54:22.526Z,17.03
2019-04-16T23:56:58.593Z,17.70
2019-04-16T23:59:45.184Z,17.67
